Time;durP1;ratioP1;P1;durP2;ratioP2;P2;SDS_P1;SDS_P2;PMS_P1;PMS_P2;Temp;Humidity;BMP_temperature;BMP_pressure;BME280_temperature;BME280_humidity;BME280_pressure;Samples;Min_cycle;Max_cycle;Signal;HPM_P1;HPM_P2
2023/07/21 05:13:38;;;;;;;3.88;3.25;;;13.70;99.90;;;;;;5058593;28;20087;-83
2023/07/21 05:17:06;;;;;;;;;;;;;;;;;;;;;
2023/07/21 05:23:56;;;;;;;5.55;3.90;;;14.00;99.90;;;;;;5030799;28;20053;-85
2023/07/21 05:26:22;;;;;;;3.33;2.72;;;14.00;99.90;;;;;;5018275;28;20055;-87
2023/07/21 05:29:16;;;;;;;4.72;2.60;;;14.10;99.90;;;;;;5022177;28;20407;-87
2023/07/21 05:32:03;;;;;;;4.65;2.13;;;14.60;99.90;;;;;;4973754;28;20056;-84
2023/07/21 05:35:13;;;;;;;3.53;2.00;;;15.50;99.90;;;;;;5033251;28;20040;-84
2023/07/21 05:38:13;;;;;;;6.07;2.63;;;16.50;99.90;;;;;;5024639;28;20106;-84
2023/07/21 05:41:55;;;;;;;2.05;1.85;;;17.50;99.90;;;;;;5008156;28;20044;-85
2023/07/21 05:45:17;;;;;;;4.65;2.55;;;18.50;99.90;;;;;;5031046;28;20094;-85
2023/07/21 06:00:28;;;;;;;2.67;1.53;;;23.00;99.90;;;;;;4982943;28;20037;-86
2023/07/21 07:00:32;;;;;;;2.13;0.50;;;29.20;90.60;;;;;;5054777;28;20478;-85
2023/07/21 07:14:29;;;;;;;1.02;0.55;;;27.10;90.50;;;;;;4921627;29;20147;-84
2023/07/21 07:51:08;;;;;;;3.78;0.73;;;23.50;93.70;;;;;;5016239;28;20033;-83
2023/07/21 07:54:26;;;;;;;2.83;1.10;;;22.70;93.80;;;;;;4996207;28;20564;-84
2023/07/21 08:37:06;;;;;;;1.52;0.45;;;23.40;92.30;;;;;;5057283;28;20067;-85
2023/07/21 08:41:02;;;;;;;2.95;0.50;;;22.90;91.80;;;;;;5001252;28;20046;-85
2023/07/21 08:51:57;;;;;;;2.65;0.70;;;22.20;93.00;;;;;;4997313;28;20072;-86
2023/07/21 09:09:37;;;;;;;1.40;0.77;;;22.60;95.70;;;;;;4984965;28;20056;-84
2023/07/21 09:12:16;;;;;;;3.35;0.60;;;22.70;95.60;;;;;;5033041;28;20042;-85
2023/07/21 09:14:44;;;;;;;1.15;0.75;;;22.40;94.40;;;;;;5006548;28;20048;-85
2023/07/21 09:17:12;;;;;;;0.57;0.43;;;22.40;94.90;;;;;;5029909;28;20041;-85
2023/07/21 09:19:42;;;;;;;2.38;0.90;;;22.40;95.20;;;;;;5019394;28;20051;-85
2023/07/21 09:22:09;;;;;;;2.30;0.50;;;22.30;96.10;;;;;;5010531;28;20044;-84
2023/07/21 09:24:37;;;;;;;0.90;0.45;;;22.20;94.80;;;;;;5003921;28;20053;-84
2023/07/21 09:27:12;;;;;;;2.08;0.60;;;22.50;94.90;;;;;;5021734;28;20040;-85
2023/07/21 09:29:37;;;;;;;1.35;0.55;;;22.30;94.50;;;;;;5039025;28;20049;-86
2023/07/21 09:32:14;;;;;;;0.85;0.60;;;22.50;94.10;;;;;;5027665;28;20036;-85
2023/07/21 09:35:07;;;;;;;1.02;0.40;;;22.30;94.30;;;;;;5015368;28;20045;-83
2023/07/21 09:37:34;;;;;;;1.15;0.50;;;22.50;94.70;;;;;;5015001;28;20702;-86
2023/07/21 09:40:01;;;;;;;2.63;0.47;;;22.50;94.10;;;;;;5038186;28;20492;-83
2023/07/21 09:42:29;;;;;;;5.75;0.60;;;22.70;93.50;;;;;;5025206;28;20041;-83
2023/07/21 09:44:56;;;;;;;1.35;0.80;;;22.80;93.50;;;;;;5013779;28;20045;-83
2023/07/21 09:51:20;;;;;;;1.08;0.30;;;22.70;94.90;;;;;;5028440;28;20112;-87
2023/07/21 09:58:15;;;;;;;1.70;0.50;;;22.50;93.80;;;;;;5039098;28;20145;-84
2023/07/21 10:04:42;;;;;;;5.18;0.93;;;22.10;94.50;;;;;;5002247;28;20053;-85
2023/07/21 10:07:09;;;;;;;1.20;0.40;;;22.00;94.40;;;;;;4960396;28;20122;-84
2023/07/21 10:09:37;;;;;;;3.35;0.60;;;21.90;93.90;;;;;;4983264;28;20448;-86
2023/07/21 10:12:15;;;;;;;1.08;0.52;;;21.80;93.80;;;;;;4986156;28;20105;-85
2023/07/21 10:14:41;;;;;;;2.45;0.40;;;21.90;95.20;;;;;;5023612;28;20250;-87
2023/07/21 10:17:08;;;;;;;1.13;0.60;;;22.50;94.30;;;;;;5052643;28;20044;-84
2023/07/21 10:19:41;;;;;;;3.38;0.75;;;22.20;94.50;;;;;;5057978;28;20041;-87
2023/07/21 10:22:21;;;;;;;5.15;0.80;;;22.50;94.00;;;;;;5052235;28;20148;-86
2023/07/21 10:24:51;;;;;;;0.90;0.60;;;22.70;92.80;;;;;;5023222;28;20041;-86
2023/07/21 10:27:24;;;;;;;1.50;0.73;;;22.70;93.40;;;;;;5035592;28;20530;-83
2023/07/21 10:30:11;;;;;;;1.77;0.80;;;22.70;93.80;;;;;;5023877;28;20440;-85
2023/07/21 10:32:44;;;;;;;22.25;1.45;;;22.70;94.60;;;;;;5044882;28;20032;-84
2023/07/21 10:35:36;;;;;;;1.23;0.60;;;22.80;94.10;;;;;;5050617;28;20043;-86
2023/07/21 10:38:13;;;;;;;2.25;0.77;;;22.40;93.50;;;;;;5032977;28;20051;-87
2023/07/21 10:40:45;;;;;;;2.97;0.80;;;22.30;94.20;;;;;;5022575;28;20041;-85
2023/07/21 10:43:12;;;;;;;1.52;0.75;;;22.50;94.70;;;;;;5022694;28;20045;-88
2023/07/21 10:45:38;;;;;;;5.28;0.70;;;22.50;94.20;;;;;;5031788;28;20037;-88
2023/07/21 10:48:11;;;;;;;1.75;0.85;;;22.40;94.40;;;;;;5015833;28;20282;-86
2023/07/21 10:50:48;;;;;;;1.00;0.88;;;22.40;94.50;;;;;;5043758;28;20041;-88
2023/07/21 10:53:14;;;;;;;1.38;0.95;;;22.40;94.80;;;;;;5028422;28;20048;-85
2023/07/21 10:55:40;;;;;;;2.08;0.80;;;22.70;95.00;;;;;;5029661;28;20056;-87
2023/07/21 10:58:05;;;;;;;11.73;1.30;;;22.40;94.70;;;;;;5044522;28;20051;-86
2023/07/21 11:00:45;;;;;;;2.60;0.80;;;22.30;95.00;;;;;;5061460;28;20048;-87
2023/07/21 11:03:11;;;;;;;1.92;1.30;;;22.60;93.50;;;;;;5038488;28;20049;-85
2023/07/21 11:05:36;;;;;;;1.13;0.75;;;22.40;93.90;;;;;;5041334;28;20068;-85
2023/07/21 11:08:03;;;;;;;0.60;0.40;;;22.40;94.00;;;;;;5042274;28;20078;-87
2023/07/21 11:10:33;;;;;;;1.48;0.50;;;22.50;93.70;;;;;;5029792;28;20037;-83
2023/07/21 11:13:01;;;;;;;1.48;0.40;;;22.60;94.20;;;;;;5025194;28;20017;-89
2023/07/21 11:15:26;;;;;;;1.15;0.45;;;22.80;93.10;;;;;;5043595;28;20033;-87
2023/07/21 11:18:00;;;;;;;0.63;0.30;;;22.80;91.80;;;;;;5023520;28;20041;-86
2023/07/21 11:20:26;;;;;;;1.02;0.30;;;22.90;91.40;;;;;;5038782;28;20041;-86
2023/07/21 11:22:52;;;;;;;1.27;0.47;;;23.00;92.10;;;;;;5036646;28;20376;-86
2023/07/21 11:25:18;;;;;;;0.68;0.52;;;23.10;91.80;;;;;;5035051;28;20139;-84
2023/07/21 11:28:05;;;;;;;1.65;0.65;;;23.20;90.50;;;;;;5050222;28;20047;-85
2023/07/21 11:30:31;;;;;;;3.47;0.60;;;23.20;90.30;;;;;;5037784;28;20469;-84
2023/07/21 11:33:13;;;;;;;0.60;0.50;;;23.20;90.00;;;;;;5023637;28;20018;-88
2023/07/21 11:35:46;;;;;;;1.20;0.50;;;23.40;90.90;;;;;;5025962;28;20120;-86
2023/07/21 11:38:12;;;;;;;1.60;0.60;;;23.40;90.40;;;;;;5022464;28;20029;-86
2023/07/21 11:40:38;;;;;;;3.83;0.80;;;23.90;90.30;;;;;;5029058;28;20067;-85
2023/07/21 11:43:07;;;;;;;1.83;0.50;;;23.70;90.20;;;;;;5039809;28;20030;-88
2023/07/21 11:45:41;;;;;;;1.60;0.68;;;24.10;89.50;;;;;;5027298;28;20052;-87
2023/07/21 11:48:14;;;;;;;3.22;0.98;;;24.00;88.20;;;;;;5049748;28;20029;-89
2023/07/21 11:50:50;;;;;;;0.85;0.63;;;24.00;89.60;;;;;;5034810;28;20033;-84
2023/07/21 11:53:17;;;;;;;3.85;0.65;;;23.90;89.20;;;;;;5051836;28;20476;-83
2023/07/21 11:55:44;;;;;;;0.85;0.55;;;23.90;90.00;;;;;;5040404;28;20079;-85
2023/07/21 11:58:11;;;;;;;1.00;0.80;;;23.80;90.00;;;;;;5025837;28;20041;-86
2023/07/21 12:00:38;;;;;;;2.58;0.70;;;23.70;90.70;;;;;;5039053;28;20045;-88
2023/07/21 12:03:04;;;;;;;5.20;0.70;;;24.10;90.90;;;;;;5040005;28;20036;-83
2023/07/21 12:05:31;;;;;;;20.85;2.60;;;24.10;91.40;;;;;;5037883;28;20130;-86
2023/07/21 12:07:57;;;;;;;1.15;0.60;;;24.10;91.70;;;;;;5030188;28;20041;-84
2023/07/21 12:10:23;;;;;;;1.42;0.60;;;24.20;91.40;;;;;;5017985;28;20044;-84
2023/07/21 12:12:50;;;;;;;2.13;0.95;;;24.20;90.60;;;;;;5034712;28;20475;-84
2023/07/21 12:15:16;;;;;;;12.13;1.73;;;23.80;90.50;;;;;;5035564;28;20201;-89
2023/07/21 12:17:42;;;;;;;6.10;2.92;;;23.60;90.50;;;;;;5038017;28;20080;-85
2023/07/21 12:20:11;;;;;;;5.75;2.28;;;23.50;90.80;;;;;;5020268;28;20033;-86
2023/07/21 12:22:41;;;;;;;62.55;6.95;;;23.50;91.00;;;;;;5026702;28;20021;-86
2023/07/21 12:25:10;;;;;;;1.00;0.52;;;23.50;91.00;;;;;;5023317;28;20124;-87
2023/07/21 12:27:36;;;;;;;2.08;0.38;;;23.30;91.30;;;;;;5060858;28;20041;-84
2023/07/21 12:30:08;;;;;;;2.85;0.57;;;23.20;91.20;;;;;;5016036;28;20086;-90
2023/07/21 12:32:36;;;;;;;1.63;0.40;;;23.00;91.10;;;;;;5035591;28;20123;-85
2023/07/21 12:35:04;;;;;;;2.88;0.70;;;22.90;91.60;;;;;;5038339;28;20188;-85
2023/07/21 12:37:30;;;;;;;2.88;0.43;;;22.80;91.30;;;;;;5017409;28;20080;-86
2023/07/21 12:39:56;;;;;;;3.70;1.05;;;22.70;91.50;;;;;;5037445;28;21253;-84
2023/07/21 12:42:22;;;;;;;4.30;0.65;;;22.60;91.40;;;;;;5034943;28;20435;-85
2023/07/21 12:44:47;;;;;;;1.85;0.50;;;22.50;91.40;;;;;;5050820;28;20041;-84
2023/07/21 12:47:13;;;;;;;2.63;0.60;;;22.40;91.50;;;;;;5041069;28;20144;-84
2023/07/21 12:49:39;;;;;;;1.38;0.50;;;22.40;91.30;;;;;;5019204;28;20073;-84
2023/07/21 12:52:04;;;;;;;0.40;0.30;;;22.50;91.10;;;;;;5022578;28;20041;-84
2023/07/21 12:54:30;;;;;;;2.40;0.57;;;22.20;90.80;;;;;;5035715;28;20033;-86
2023/07/21 12:56:58;;;;;;;0.90;0.40;;;22.50;90.20;;;;;;5039937;28;20064;-86
2023/07/21 12:59:23;;;;;;;2.05;0.70;;;22.10;89.70;;;;;;5017003;28;20499;-84
2023/07/21 13:01:49;;;;;;;6.50;1.05;;;22.00;90.40;;;;;;5015731;28;20114;-86
2023/07/21 13:04:15;;;;;;;6.78;1.00;;;21.70;92.80;;;;;;5027472;28;20040;-85
2023/07/21 13:06:42;;;;;;;5.53;0.77;;;21.30;94.00;;;;;;5027396;28;20098;-85
2023/07/21 13:09:09;;;;;;;7.25;0.80;;;20.90;94.80;;;;;;5047804;28;20103;-84
2023/07/21 13:11:34;;;;;;;1.92;0.63;;;20.50;95.10;;;;;;5017464;28;20053;-85
2023/07/21 13:14:00;;;;;;;4.03;1.02;;;20.30;96.10;;;;;;5031001;28;20131;-85
2023/07/21 13:16:26;;;;;;;0.98;0.80;;;19.90;96.40;;;;;;5048336;28;20052;-85
2023/07/21 13:18:51;;;;;;;1.83;0.50;;;19.60;97.30;;;;;;5020607;28;20044;-87
2023/07/21 13:21:17;;;;;;;0.88;0.40;;;19.50;97.40;;;;;;5021859;28;20059;-86
2023/07/21 13:23:43;;;;;;;2.67;0.80;;;19.40;97.80;;;;;;5031423;28;20103;-85
2023/07/21 13:26:08;;;;;;;1.30;0.60;;;19.30;98.30;;;;;;5016896;28;20485;-85
2023/07/21 13:28:34;;;;;;;3.35;0.60;;;19.20;98.50;;;;;;5028043;28;20798;-85
2023/07/21 13:31:00;;;;;;;1.02;0.55;;;19.10;99.40;;;;;;5016731;28;20055;-85
2023/07/21 13:33:27;;;;;;;1.83;1.08;;;19.10;99.80;;;;;;5048055;28;20081;-85
2023/07/21 13:35:53;;;;;;;1.20;0.55;;;19.20;99.90;;;;;;5006607;28;20057;-84
2023/07/21 13:38:18;;;;;;;1.50;0.60;;;19.30;99.90;;;;;;5028956;28;20052;-85
2023/07/21 13:40:44;;;;;;;1.08;0.88;;;18.90;99.90;;;;;;5036402;28;20045;-84
2023/07/21 13:43:10;;;;;;;1.05;0.65;;;18.80;99.90;;;;;;5020576;28;20064;-86
2023/07/21 13:45:35;;;;;;;1.63;0.47;;;18.70;99.90;;;;;;5008970;28;20070;-86
2023/07/21 13:48:02;;;;;;;1.20;0.70;;;18.80;99.90;;;;;;5014503;28;20051;-85
2023/07/21 13:50:28;;;;;;;1.27;0.63;;;18.70;99.90;;;;;;5014562;28;20037;-85
2023/07/21 13:52:54;;;;;;;1.80;0.47;;;18.40;99.90;;;;;;5032632;28;20519;-85
2023/07/21 13:55:19;;;;;;;0.60;0.47;;;18.30;99.90;;;;;;5003536;28;20073;-85
2023/07/21 13:57:45;;;;;;;1.13;0.77;;;18.30;99.90;;;;;;5032265;28;20099;-84
2023/07/21 14:00:18;;;;;;;2.60;0.73;;;18.10;99.90;;;;;;5042578;28;20099;-85
2023/07/21 14:02:44;;;;;;;0.90;0.43;;;18.00;99.90;;;;;;5025524;28;20057;-86
2023/07/21 14:05:10;;;;;;;1.00;0.70;;;18.20;99.90;;;;;;5042762;28;20049;-85
2023/07/21 14:07:36;;;;;;;3.97;0.95;;;18.10;99.90;;;;;;5028164;28;20049;-88
2023/07/21 14:10:02;;;;;;;2.08;0.70;;;18.00;99.90;;;;;;5030547;28;20047;-84
2023/07/21 14:12:27;;;;;;;3.22;1.10;;;18.00;99.90;;;;;;5048250;28;20039;-86
2023/07/21 14:14:53;;;;;;;2.13;1.02;;;17.90;99.90;;;;;;5034271;28;20078;-86
2023/07/21 14:17:18;;;;;;;2.25;1.10;;;18.00;99.90;;;;;;5024776;28;20048;-89
2023/07/21 14:19:44;;;;;;;4.60;0.60;;;17.50;99.90;;;;;;5026562;28;20407;-86
2023/07/21 14:22:12;;;;;;;1.00;0.70;;;17.90;99.90;;;;;;5017086;28;20071;-86
2023/07/21 14:24:38;;;;;;;1.17;0.88;;;18.00;99.90;;;;;;5013534;28;20091;-85
2023/07/21 14:27:03;;;;;;;0.80;0.50;;;18.70;99.90;;;;;;5052546;28;20037;-86
2023/07/21 14:29:29;;;;;;;1.65;0.90;;;18.20;99.90;;;;;;5031303;28;20028;-86
2023/07/21 14:31:55;;;;;;;0.90;0.50;;;18.70;99.90;;;;;;5055230;28;20033;-87
2023/07/21 14:34:28;;;;;;;5.65;0.52;;;18.30;99.90;;;;;;5021185;28;20451;-86
2023/07/21 14:36:53;;;;;;;1.40;0.50;;;18.50;99.90;;;;;;5018102;28;20051;-85
2023/07/21 14:39:21;;;;;;;1.10;0.68;;;18.80;99.90;;;;;;5023597;28;20033;-86
2023/07/21 14:41:47;;;;;;;1.73;0.98;;;18.50;99.90;;;;;;5030472;28;20518;-88
2023/07/21 14:44:13;;;;;;;0.98;0.80;;;19.20;99.90;;;;;;5022299;28;20033;-85
2023/07/21 14:46:39;;;;;;;1.23;0.75;;;18.90;99.90;;;;;;5025344;28;20495;-84
2023/07/21 14:49:05;;;;;;;1.17;0.55;;;18.90;99.90;;;;;;5049717;28;20072;-84
2023/07/21 14:51:32;;;;;;;2.30;0.70;;;19.10;99.90;;;;;;5053037;28;20572;-85
2023/07/21 14:53:57;;;;;;;20.75;1.35;;;18.90;99.90;;;;;;5039805;28;20036;-85
2023/07/21 14:56:23;;;;;;;1.48;0.90;;;18.80;99.90;;;;;;5036519;28;20037;-87
2023/07/21 14:58:48;;;;;;;9.68;1.65;;;18.80;99.90;;;;;;5056138;28;20075;-84
2023/07/21 15:01:14;;;;;;;3.22;0.45;;;18.80;99.90;;;;;;5052244;28;20041;-84
2023/07/21 15:03:39;;;;;;;0.45;0.45;;;18.60;99.90;;;;;;5029930;28;20535;-83
2023/07/21 15:06:05;;;;;;;3.50;0.90;;;18.60;99.90;;;;;;5043866;28;20041;-83
2023/07/21 15:08:35;;;;;;;1.20;0.50;;;18.70;99.90;;;;;;5046240;28;20033;-85
2023/07/21 15:11:00;;;;;;;0.82;0.50;;;18.50;99.90;;;;;;5030258;28;20055;-84
2023/07/21 15:13:26;;;;;;;1.30;0.30;;;18.40;99.90;;;;;;5027985;28;20057;-82
2023/07/21 15:15:51;;;;;;;1.48;0.50;;;18.40;99.90;;;;;;5052887;28;20045;-85
2023/07/21 15:18:17;;;;;;;1.17;0.47;;;18.50;99.90;;;;;;5040161;28;20042;-84
2023/07/21 15:20:44;;;;;;;3.03;0.90;;;18.60;99.90;;;;;;5039103;28;20053;-85
2023/07/21 15:23:10;;;;;;;4.70;0.70;;;18.30;99.90;;;;;;5013708;28;20442;-86
2023/07/21 15:25:36;;;;;;;1.38;0.55;;;18.30;99.90;;;;;;5038518;28;20037;-87
2023/07/21 15:36:05;;;;;;;2.50;1.00;;;18.30;99.90;;;;;;5027617;28;20080;-86
2023/07/21 15:38:31;;;;;;;1.48;0.70;;;18.20;99.90;;;;;;5040974;28;20041;-86
2023/07/21 15:40:57;;;;;;;1.20;0.90;;;18.30;99.90;;;;;;5042128;28;20051;-86
2023/07/21 15:43:23;;;;;;;2.05;0.95;;;18.30;99.90;;;;;;5053652;28;20079;-83
2023/07/21 15:46:45;;;;;;;2.05;1.17;;;18.20;99.90;;;;;;5037037;28;20045;-85
2023/07/21 15:49:23;;;;;;;1.30;0.93;;;18.40;99.90;;;;;;4999693;28;20082;-83
2023/07/21 15:56:21;;;;;;;2.63;2.38;;;18.50;99.90;;;;;;5006212;28;20151;-84
2023/07/21 16:11:22;;;;;;;2.08;1.88;;;18.80;99.90;;;;;;5017070;28;20065;-84
2023/07/21 16:14:42;;;;;;;4.35;2.88;;;18.70;99.90;;;;;;4979392;28;21549;-86
2023/07/21 16:17:11;;;;;;;5.40;3.08;;;18.90;99.90;;;;;;4970222;28;20048;-86
2023/07/21 16:19:36;;;;;;;3.70;3.20;;;18.80;99.90;;;;;;5044900;28;20065;-86
2023/07/21 16:22:02;;;;;;;3.88;3.58;;;18.90;99.90;;;;;;5051023;28;20045;-84
2023/07/21 16:24:28;;;;;;;3.58;3.28;;;18.90;99.90;;;;;;5040581;28;20036;-85
2023/07/21 16:26:53;;;;;;;4.22;3.42;;;18.90;99.90;;;;;;5047777;28;20032;-84
2023/07/21 16:29:19;;;;;;;4.90;3.38;;;18.90;99.90;;;;;;5048637;28;20049;-85
2023/07/21 16:31:45;;;;;;;4.45;3.60;;;18.90;99.90;;;;;;5050617;28;20041;-85
2023/07/21 16:34:10;;;;;;;3.78;3.08;;;18.90;99.90;;;;;;5030715;28;20042;-85
2023/07/21 16:36:37;;;;;;;4.35;3.95;;;19.00;99.90;;;;;;5027664;28;20038;-85
2023/07/21 16:39:02;;;;;;;3.85;3.45;;;18.80;99.90;;;;;;5064235;28;20042;-84
2023/07/21 16:41:28;;;;;;;3.95;3.47;;;18.80;99.90;;;;;;5046159;28;20063;-83
2023/07/21 16:43:54;;;;;;;3.40;3.10;;;18.60;99.90;;;;;;5044185;28;20033;-85
2023/07/21 16:46:19;;;;;;;3.10;2.80;;;18.60;99.90;;;;;;5032074;28;20044;-85
2023/07/21 16:48:45;;;;;;;4.05;3.05;;;18.50;99.90;;;;;;5042644;28;20048;-85
2023/07/21 16:51:10;;;;;;;5.18;3.55;;;19.10;99.90;;;;;;5044312;28;20040;-84
2023/07/21 16:53:36;;;;;;;5.55;3.13;;;19.10;99.90;;;;;;5043069;28;20088;-85
2023/07/21 16:56:11;;;;;;;4.40;3.08;;;18.80;99.90;;;;;;5061246;28;20056;-84
2023/07/21 16:58:39;;;;;;;3.70;3.38;;;18.60;99.90;;;;;;5034033;28;20087;-82
2023/07/21 17:01:09;;;;;;;4.45;3.65;;;18.60;99.90;;;;;;5050778;28;20056;-84
2023/07/21 17:03:35;;;;;;;4.38;3.75;;;18.50;99.90;;;;;;5050115;28;20041;-84
2023/07/21 17:06:01;;;;;;;4.30;3.90;;;18.40;99.90;;;;;;5035882;28;20056;-84
2023/07/21 17:08:27;;;;;;;5.13;3.67;;;18.40;99.90;;;;;;5053343;28;20026;-83
2023/07/21 17:10:52;;;;;;;5.38;3.90;;;18.30;99.90;;;;;;5033953;28;20509;-83
2023/07/21 17:13:18;;;;;;;6.07;4.35;;;18.50;99.90;;;;;;5041882;28;20033;-84
2023/07/21 17:15:45;;;;;;;5.05;4.18;;;18.30;99.90;;;;;;5041808;28;20058;-84
2023/07/21 17:18:10;;;;;;;4.53;3.78;;;18.50;99.90;;;;;;5046782;28;20494;-83
2023/07/21 17:20:36;;;;;;;4.53;4.13;;;18.30;99.90;;;;;;5051392;28;20044;-84
2023/07/21 17:23:01;;;;;;;7.78;4.35;;;18.30;99.90;;;;;;5051763;28;20052;-83
2023/07/21 17:25:27;;;;;;;5.05;4.28;;;18.30;99.90;;;;;;5020862;28;20041;-84
2023/07/21 17:27:53;;;;;;;5.55;4.13;;;18.60;99.90;;;;;;5053852;28;20456;-85
2023/07/21 17:30:19;;;;;;;4.47;3.80;;;18.40;99.90;;;;;;5037609;28;20063;-85
2023/07/21 17:32:45;;;;;;;4.13;3.78;;;18.40;99.90;;;;;;5043792;28;20044;-85
2023/07/21 17:35:13;;;;;;;5.18;4.68;;;18.20;99.90;;;;;;5019946;28;20406;-85
2023/07/21 17:37:39;;;;;;;4.43;4.03;;;18.60;99.90;;;;;;5028948;28;20049;-85
2023/07/21 17:40:09;;;;;;;6.32;4.68;;;18.70;99.90;;;;;;5016968;28;20048;-84
2023/07/21 17:42:34;;;;;;;5.25;4.50;;;18.60;99.90;;;;;;5035379;28;20041;-84
2023/07/21 17:45:00;;;;;;;4.50;3.97;;;18.80;99.90;;;;;;5034280;28;20049;-85
2023/07/21 17:47:26;;;;;;;6.82;4.22;;;18.60;99.90;;;;;;5027399;28;20044;-84
2023/07/21 17:49:54;;;;;;;6.78;4.25;;;18.70;99.90;;;;;;5030954;28;20176;-84
2023/07/21 17:52:38;;;;;;;6.10;5.18;;;18.70;99.90;;;;;;5019521;28;20149;-85
2023/07/21 17:58:37;;;;;;;4.88;4.38;;;18.70;99.90;;;;;;5048983;28;20040;-84
2023/07/21 18:01:05;;;;;;;7.80;4.00;;;18.60;99.90;;;;;;5032270;28;20514;-82
2023/07/21 18:03:36;;;;;;;5.30;4.30;;;18.50;99.90;;;;;;5048394;28;20059;-84
2023/07/21 18:06:30;;;;;;;4.55;4.15;;;18.50;99.90;;;;;;5002281;28;20060;-82
2023/07/21 18:13:01;;;;;;;5.93;4.88;;;18.30;99.90;;;;;;5036683;28;20091;-84
2023/07/21 18:19:56;;;;;;;4.07;3.65;;;18.20;99.90;;;;;;5029909;28;20099;-86
2023/07/21 18:22:33;;;;;;;7.05;4.60;;;18.20;99.90;;;;;;4979101;28;20747;-82
2023/07/21 18:25:00;;;;;;;4.45;4.05;;;18.10;99.90;;;;;;5044033;28;20083;-84
2023/07/21 18:27:26;;;;;;;4.93;3.75;;;18.10;99.90;;;;;;5017738;28;20060;-84
2023/07/21 18:29:57;;;;;;;5.18;3.55;;;18.00;99.90;;;;;;5045356;28;20049;-84
2023/07/21 18:32:23;;;;;;;4.65;3.92;;;17.90;99.90;;;;;;5045386;28;20049;-83
2023/07/21 18:34:50;;;;;;;5.28;4.25;;;17.90;99.90;;;;;;5046275;28;20102;-84
2023/07/21 18:37:24;;;;;;;5.30;3.97;;;17.80;99.90;;;;;;5032047;28;20541;-83
2023/07/21 18:39:50;;;;;;;4.55;4.00;;;17.70;99.90;;;;;;5015101;28;20053;-84
2023/07/21 18:42:50;;;;;;;4.95;4.20;;;17.70;99.90;;;;;;5030883;28;20041;-84
2023/07/21 18:45:26;;;;;;;5.18;3.83;;;17.60;99.90;;;;;;5011064;28;20092;-84
2023/07/21 18:48:14;;;;;;;4.90;4.50;;;17.50;99.90;;;;;;5006808;28;20041;-84
2023/07/21 18:50:43;;;;;;;5.65;3.83;;;17.50;99.90;;;;;;5016194;28;20041;-83
2023/07/21 18:53:08;;;;;;;5.82;4.28;;;17.60;99.90;;;;;;5025223;28;20037;-82
2023/07/21 18:55:57;;;;;;;4.45;4.05;;;17.40;99.90;;;;;;5030122;28;20439;-85
2023/07/21 18:58:32;;;;;;;6.65;3.97;;;17.40;99.90;;;;;;5014547;28;20045;-83
2023/07/21 19:05:15;;;;;;;4.88;4.28;;;17.40;99.90;;;;;;4988599;28;20046;-84
2023/07/21 19:08:48;;;;;;;4.53;3.42;;;17.30;99.90;;;;;;5024212;28;20054;-84
2023/07/21 19:12:05;;;;;;;9.45;4.03;;;17.30;99.90;;;;;;5034224;28;20119;-84
2023/07/21 19:15:49;;;;;;;5.57;3.30;;;17.20;99.90;;;;;;5002281;28;20092;-85
2023/07/21 19:18:36;;;;;;;3.80;2.97;;;17.10;99.90;;;;;;5001107;28;20053;-84
2023/07/21 19:21:40;;;;;;;4.72;2.47;;;17.00;99.90;;;;;;5019112;28;20750;-83
2023/07/21 19:24:06;;;;;;;3.80;3.13;;;17.00;99.90;;;;;;5009372;28;20517;-82
2023/07/21 19:26:31;;;;;;;6.80;2.40;;;16.90;99.90;;;;;;5027129;28;20092;-84
2023/07/21 19:28:57;;;;;;;6.28;2.78;;;17.10;99.90;;;;;;5037915;28;20076;-84
2023/07/21 19:31:23;;;;;;;8.05;2.20;;;16.70;99.90;;;;;;5031748;28;20037;-84
2023/07/21 19:33:48;;;;;;;6.35;2.00;;;16.80;99.90;;;;;;5051332;28;20032;-84
2023/07/21 19:36:14;;;;;;;4.03;1.60;;;16.60;99.90;;;;;;5049273;28;20610;-83
2023/07/21 19:38:40;;;;;;;6.78;1.70;;;16.50;99.90;;;;;;5031174;28;20308;-84
2023/07/21 19:41:12;;;;;;;3.45;1.65;;;16.50;99.90;;;;;;5018038;28;20053;-83
2023/07/21 19:43:38;;;;;;;4.97;1.65;;;16.40;99.90;;;;;;5015494;28;20091;-84
2023/07/21 19:46:03;;;;;;;6.28;2.33;;;16.30;99.90;;;;;;5034213;28;20068;-83
2023/07/21 19:48:29;;;;;;;6.05;1.90;;;16.40;99.90;;;;;;5018315;28;20055;-83
2023/07/21 19:50:55;;;;;;;4.95;1.60;;;16.10;99.90;;;;;;5034686;28;20079;-82
2023/07/21 19:53:20;;;;;;;3.22;1.83;;;16.10;99.90;;;;;;5022567;28;20059;-83
2023/07/21 19:55:46;;;;;;;8.20;1.85;;;16.00;99.90;;;;;;5036218;28;20110;-83
2023/07/21 19:58:11;;;;;;;6.68;1.83;;;16.00;99.90;;;;;;5031101;28;20025;-82
2023/07/21 20:00:38;;;;;;;4.03;2.05;;;16.00;99.90;;;;;;5051031;28;20056;-84
2023/07/21 20:03:10;;;;;;;5.30;1.45;;;16.30;99.90;;;;;;5035947;28;20047;-83
2023/07/21 20:05:36;;;;;;;3.33;1.85;;;15.80;99.90;;;;;;5016062;28;20060;-83
2023/07/21 20:08:02;;;;;;;6.03;2.28;;;15.80;99.90;;;;;;5049148;28;20052;-83
2023/07/21 20:10:27;;;;;;;5.80;2.17;;;15.70;99.90;;;;;;5044778;28;20120;-83
2023/07/21 20:12:53;;;;;;;5.22;2.33;;;15.70;99.90;;;;;;5034932;28;20763;-83
2023/07/21 20:15:20;;;;;;;6.20;2.70;;;15.60;99.90;;;;;;5018948;28;20494;-84
2023/07/21 20:17:46;;;;;;;6.78;2.53;;;15.70;99.90;;;;;;5034105;28;20060;-83
2023/07/21 20:20:12;;;;;;;6.63;1.95;;;16.10;99.90;;;;;;5046020;28;20037;-82
2023/07/21 20:22:38;;;;;;;5.07;2.65;;;15.50;99.90;;;;;;5051168;28;20060;-83
2023/07/21 20:25:05;;;;;;;6.07;2.20;;;15.50;99.90;;;;;;5010471;28;20053;-84
2023/07/21 20:27:30;;;;;;;5.80;2.03;;;15.50;99.90;;;;;;5031755;28;20037;-84
2023/07/21 20:29:56;;;;;;;3.83;1.70;;;15.40;99.90;;;;;;5049375;28;20036;-83
2023/07/21 20:32:21;;;;;;;5.30;2.78;;;15.30;99.90;;;;;;5051057;28;20116;-83
2023/07/21 20:34:47;;;;;;;3.70;2.05;;;15.40;99.90;;;;;;5027085;28;20064;-83
2023/07/21 20:37:13;;;;;;;4.80;2.15;;;15.40;99.90;;;;;;5032065;28;20191;-83
2023/07/21 20:39:38;;;;;;;6.30;2.45;;;15.60;99.90;;;;;;5035596;28;20041;-83
2023/07/21 20:42:04;;;;;;;6.45;2.45;;;15.30;99.90;;;;;;5046505;28;20049;-83
2023/07/21 20:44:30;;;;;;;5.05;2.30;;;15.20;99.90;;;;;;5019788;28;20033;-83
2023/07/21 20:46:55;;;;;;;4.32;2.15;;;15.20;99.90;;;;;;5053205;28;20055;-83
2023/07/21 20:49:21;;;;;;;6.65;2.30;;;15.30;99.90;;;;;;5036954;28;20037;-83
2023/07/21 20:51:47;;;;;;;4.78;2.42;;;15.00;99.90;;;;;;5039956;28;20029;-83
2023/07/21 20:54:12;;;;;;;7.50;2.72;;;15.00;99.90;;;;;;5028982;28;20037;-83
2023/07/21 20:56:38;;;;;;;7.55;2.58;;;14.90;99.90;;;;;;5023417;28;20037;-83
2023/07/21 20:59:03;;;;;;;5.53;2.50;;;14.90;99.90;;;;;;5034602;28;20055;-82
2023/07/21 21:01:29;;;;;;;8.35;2.45;;;14.90;99.90;;;;;;5034906;28;20103;-83
2023/07/21 21:03:55;;;;;;;10.07;3.25;;;14.90;99.90;;;;;;5056184;28;20051;-83
2023/07/21 21:06:21;;;;;;;6.88;2.90;;;14.80;99.90;;;;;;5022504;28;20041;-83
2023/07/21 21:08:47;;;;;;;7.25;2.80;;;15.20;99.90;;;;;;5053998;28;20116;-83
2023/07/21 21:11:12;;;;;;;4.63;2.15;;;14.60;99.90;;;;;;5054779;28;20179;-83
2023/07/21 21:13:38;;;;;;;6.40;2.65;;;14.60;99.90;;;;;;5020919;28;20036;-83
2023/07/21 21:16:03;;;;;;;6.05;2.58;;;14.30;99.90;;;;;;5054329;28;20048;-83
2023/07/21 21:18:29;;;;;;;7.57;3.17;;;14.30;99.90;;;;;;5037965;28;20491;-83
2023/07/21 21:20:54;;;;;;;4.07;2.30;;;14.90;99.90;;;;;;5052326;28;20048;-82
2023/07/21 21:23:20;;;;;;;6.15;3.50;;;14.20;99.90;;;;;;5050437;28;20124;-83
2023/07/21 21:25:52;;;;;;;8.23;3.45;;;14.90;99.90;;;;;;5049725;28;20626;-83
2023/07/21 21:28:18;;;;;;;6.53;2.88;;;14.20;99.90;;;;;;5021351;28;20173;-83
2023/07/21 21:30:44;;;;;;;6.18;3.15;;;14.20;99.90;;;;;;5053621;28;20330;-82
2023/07/21 21:33:09;;;;;;;6.30;3.55;;;14.10;99.90;;;;;;5035049;28;20090;-82
2023/07/21 21:35:35;;;;;;;6.95;3.33;;;14.10;99.90;;;;;;5040288;28;20467;-83
2023/07/21 21:38:00;;;;;;;7.07;3.58;;;14.10;99.90;;;;;;5034481;28;20041;-83
2023/07/21 21:40:29;;;;;;;9.65;4.20;;;14.10;99.90;;;;;;5038503;28;20041;-83
2023/07/21 21:42:54;;;;;;;7.45;3.40;;;14.00;99.90;;;;;;5055488;28;20032;-83
2023/07/21 21:45:20;;;;;;;6.10;3.35;;;14.10;99.90;;;;;;5036504;28;20058;-82
2023/07/21 21:47:45;;;;;;;5.82;3.35;;;13.80;99.90;;;;;;5038591;28;20068;-83
2023/07/21 21:50:11;;;;;;;11.48;4.00;;;13.80;99.90;;;;;;5049367;28;20048;-83
2023/07/21 21:52:36;;;;;;;11.13;3.70;;;14.20;99.90;;;;;;5023006;28;20039;-83
2023/07/21 21:55:03;;;;;;;8.77;3.67;;;13.90;99.90;;;;;;5039675;28;20041;-83
2023/07/21 21:57:29;;;;;;;9.27;3.88;;;13.90;99.90;;;;;;5022474;28;20045;-83
2023/07/21 21:59:55;;;;;;;7.93;3.22;;;14.00;99.90;;;;;;5055541;28;20037;-82
2023/07/21 22:02:22;;;;;;;5.63;3.60;;;14.20;99.90;;;;;;5040165;28;20036;-82
2023/07/21 22:04:48;;;;;;;6.50;3.47;;;14.00;99.90;;;;;;5038966;28;20041;-83
2023/07/21 22:07:14;;;;;;;10.82;4.00;;;14.00;99.90;;;;;;5037126;28;20060;-83
2023/07/21 22:09:39;;;;;;;7.03;3.78;;;14.10;99.90;;;;;;5037038;28;20093;-83
2023/07/21 22:12:06;;;;;;;6.60;4.20;;;14.00;99.90;;;;;;5035447;28;20044;-83
2023/07/21 22:14:31;;;;;;;9.25;4.03;;;14.00;99.90;;;;;;5038135;28;20043;-82